Aviation Digital Data Service (ADDS)

Output produced by METARs form (0928 UTC 29 July 2015)
found at http://aviationweather.gov/adds/metars/
 
KSYR 290911Z 2909/3006 VRB03KT P6SM BKN250 
     FM291400 24005KT P6SM FEW050 
     FM300100 18008KT P6SM SCT100 BKN250